createdAt,value
2017-08-06T00:01:51.478Z,0.73
2017-08-06T00:04:18.969Z,1.57
2017-08-06T00:06:50.808Z,1.40
2017-08-06T00:09:18.308Z,1.23
2017-08-06T00:11:45.807Z,1.53
2017-08-06T00:14:19.992Z,1.30
2017-08-06T00:16:47.787Z,1.30
2017-08-06T00:19:15.272Z,0.90
2017-08-06T00:21:50.881Z,1.27
2017-08-06T00:24:18.389Z,1.53
2017-08-06T00:26:45.871Z,1.03
2017-08-06T00:29:13.373Z,1.00
2017-08-06T00:31:40.870Z,1.00
2017-08-06T00:34:09.145Z,0.87
2017-08-06T00:36:36.647Z,1.20
2017-08-06T00:39:04.482Z,1.47
2017-08-06T00:41:41.672Z,1.70
2017-08-06T00:44:09.427Z,2.73
2017-08-06T00:46:36.920Z,1.30
2017-08-06T00:49:10.458Z,1.10
2017-08-06T00:51:40.978Z,1.60
2017-08-06T00:54:12.067Z,1.03
2017-08-06T00:56:39.557Z,1.67
2017-08-06T00:59:13.072Z,1.30
2017-08-06T01:01:40.562Z,1.40
2017-08-06T01:04:12.141Z,1.90
2017-08-06T01:06:39.634Z,1.30
2017-08-06T01:09:07.129Z,1.90
2017-08-06T01:11:41.908Z,2.07
2017-08-06T01:14:10.413Z,1.43
2017-08-06T01:16:40.962Z,2.03
2017-08-06T01:19:08.466Z,1.60
2017-08-06T01:21:35.974Z,1.40
2017-08-06T01:24:03.803Z,1.47
2017-08-06T01:26:31.292Z,1.60
2017-08-06T01:29:01.709Z,1.50
2017-08-06T01:31:29.207Z,2.00
2017-08-06T01:33:56.705Z,1.53
2017-08-06T01:36:30.097Z,1.27
2017-08-06T01:39:00.896Z,1.00
2017-08-06T01:41:29.497Z,1.67
2017-08-06T01:43:56.999Z,1.43
2017-08-06T01:46:30.749Z,1.47
2017-08-06T01:48:58.991Z,1.70
2017-08-06T01:51:26.482Z,1.50
2017-08-06T01:54:00.893Z,1.53
2017-08-06T01:56:31.732Z,1.77
2017-08-06T01:59:02.488Z,1.60
2017-08-06T02:01:29.974Z,1.80
2017-08-06T02:03:57.462Z,1.63
2017-08-06T02:06:24.956Z,1.30
2017-08-06T02:09:00.847Z,1.47
2017-08-06T02:11:28.336Z,1.63
2017-08-06T02:13:55.927Z,1.33
2017-08-06T02:16:30.637Z,1.77
2017-08-06T02:19:01.203Z,1.83
2017-08-06T02:21:32.027Z,2.63
2017-08-06T02:23:59.591Z,2.00
2017-08-06T02:26:27.075Z,1.73
2017-08-06T02:28:54.899Z,1.40
2017-08-06T02:31:30.708Z,1.53
2017-08-06T02:33:58.483Z,1.73
2017-08-06T02:36:31.802Z,1.50
2017-08-06T02:39:00.390Z,2.70
2017-08-06T02:41:32.208Z,1.40
2017-08-06T02:43:59.726Z,1.27
2017-08-06T02:46:27.232Z,1.80
2017-08-06T02:48:54.735Z,1.40
2017-08-06T02:51:30.216Z,1.20
2017-08-06T02:53:57.704Z,1.70
2017-08-06T02:56:25.508Z,1.83
2017-08-06T02:59:00.011Z,2.10
2017-08-06T03:01:28.611Z,2.10
2017-08-06T03:04:02.070Z,1.50
2017-08-06T03:06:31.201Z,1.67
2017-08-06T03:09:00.438Z,1.63
2017-08-06T03:11:27.922Z,1.90
2017-08-06T03:14:01.297Z,1.13
2017-08-06T03:16:28.802Z,1.60
2017-08-06T03:18:57.402Z,2.10
2017-08-06T03:21:24.883Z,1.50
2017-08-06T03:24:01.141Z,2.23
2017-08-06T03:26:28.697Z,2.07
2017-08-06T03:28:56.186Z,1.50
2017-08-06T03:31:31.007Z,1.50
2017-08-06T03:33:58.554Z,1.73
2017-08-06T03:36:26.098Z,2.50
2017-08-06T03:38:53.660Z,2.67
2017-08-06T03:41:30.939Z,1.63
2017-08-06T03:44:02.303Z,1.60
2017-08-06T03:46:29.817Z,2.37
2017-08-06T03:49:01.108Z,1.60
2017-08-06T03:51:28.617Z,1.73
2017-08-06T03:54:01.805Z,1.47
2017-08-06T03:56:30.614Z,1.60
2017-08-06T03:58:58.095Z,1.87
2017-08-06T04:01:25.884Z,1.83
2017-08-06T04:03:53.377Z,1.97
2017-08-06T04:06:30.809Z,2.40
2017-08-06T04:08:59.066Z,1.93
2017-08-06T04:11:26.552Z,2.10
2017-08-06T04:14:00.423Z,1.67
2017-08-06T04:16:31.235Z,1.70
2017-08-06T04:18:58.744Z,1.97
2017-08-06T04:21:32.092Z,1.87
2017-08-06T04:24:01.140Z,1.80
2017-08-06T04:26:28.636Z,1.43
2017-08-06T04:28:56.119Z,2.33
2017-08-06T04:31:23.631Z,2.73
2017-08-06T04:34:00.906Z,2.23
2017-08-06T04:36:28.652Z,1.97
2017-08-06T04:39:01.948Z,2.30
2017-08-06T04:41:30.539Z,2.50
2017-08-06T04:44:00.318Z,2.23
2017-08-06T04:46:27.803Z,1.80
2017-08-06T04:49:01.322Z,1.93
2017-08-06T04:51:28.816Z,2.40
2017-08-06T04:53:56.308Z,2.33
2017-08-06T04:56:23.795Z,2.00
2017-08-06T04:59:01.280Z,2.23
2017-08-06T05:01:28.776Z,2.57
2017-08-06T05:04:02.474Z,1.93
2017-08-06T05:06:31.160Z,2.60
2017-08-06T05:08:58.647Z,2.00
2017-08-06T05:11:31.912Z,2.33
2017-08-06T05:14:00.616Z,2.20
2017-08-06T05:16:28.118Z,1.80
2017-08-06T05:19:02.748Z,1.90
2017-08-06T05:21:41.562Z,2.07
2017-08-06T05:24:09.059Z,2.13
2017-08-06T05:26:42.671Z,1.70
2017-08-06T05:29:10.157Z,2.00
2017-08-06T05:31:40.689Z,1.30
2017-08-06T05:34:11.236Z,1.43
2017-08-06T05:36:38.729Z,1.60
2017-08-06T05:39:06.686Z,1.83
2017-08-06T05:41:40.703Z,2.03
2017-08-06T05:44:08.506Z,1.50
2017-08-06T05:46:42.641Z,1.40
2017-08-06T05:49:10.424Z,1.67
2017-08-06T05:51:40.947Z,1.27
2017-08-06T05:54:11.900Z,1.60
2017-08-06T05:56:40.170Z,1.53
2017-08-06T05:59:10.755Z,1.53
2017-08-06T06:01:38.252Z,1.60
2017-08-06T06:04:06.499Z,2.20
2017-08-06T06:06:33.987Z,1.70
2017-08-06T06:09:01.472Z,1.80
2017-08-06T06:11:28.963Z,2.20
2017-08-06T06:14:03.039Z,2.03
2017-08-06T06:16:30.552Z,2.80
2017-08-06T06:18:58.044Z,3.43
2017-08-06T06:21:31.633Z,3.20
2017-08-06T06:23:59.517Z,2.97
2017-08-06T06:26:27.009Z,4.70
2017-08-06T06:28:54.487Z,4.20
2017-08-06T06:31:21.988Z,3.87
2017-08-06T06:33:50.461Z,3.83
2017-08-06T06:36:21.095Z,3.80
2017-08-06T06:38:48.579Z,4.13
2017-08-06T06:41:22.314Z,4.30
2017-08-06T06:43:50.832Z,4.50
2017-08-06T06:46:20.435Z,4.27
2017-08-06T06:48:47.934Z,5.30
2017-08-06T06:51:15.436Z,4.03
2017-08-06T06:53:50.225Z,5.20
2017-08-06T06:56:17.720Z,4.40
2017-08-06T06:58:45.216Z,5.83
2017-08-06T07:01:13.492Z,4.07
2017-08-06T07:03:42.303Z,5.03
2017-08-06T07:06:11.423Z,4.80
2017-08-06T07:08:38.925Z,4.17
2017-08-06T07:11:06.433Z,4.50
2017-08-06T07:13:40.432Z,4.87
2017-08-06T07:16:07.937Z,4.60
2017-08-06T07:18:41.675Z,4.77
2017-08-06T07:21:09.184Z,4.10
2017-08-06T07:23:36.671Z,5.67
2017-08-06T07:26:05.287Z,4.43
2017-08-06T07:28:40.152Z,4.87
2017-08-06T07:31:07.940Z,5.60
2017-08-06T07:33:35.436Z,4.73
2017-08-06T07:36:11.182Z,5.67
2017-08-06T07:38:40.838Z,4.63
2017-08-06T07:41:08.328Z,5.10
2017-08-06T07:43:41.601Z,4.67
2017-08-06T07:46:09.090Z,5.13
2017-08-06T07:48:41.032Z,5.00
2017-08-06T07:51:11.605Z,4.40
2017-08-06T07:53:42.441Z,4.93
2017-08-06T07:56:09.940Z,4.70
2017-08-06T07:58:37.418Z,4.87
2017-08-06T08:01:11.492Z,3.83
2017-08-06T08:03:38.996Z,3.80
2017-08-06T08:06:12.794Z,4.73
2017-08-06T08:08:40.296Z,5.20
2017-08-06T08:11:11.264Z,4.60
2017-08-06T08:13:41.821Z,4.80
2017-08-06T08:16:10.648Z,4.67
2017-08-06T08:18:41.984Z,3.90
2017-08-06T08:21:10.588Z,3.60
2017-08-06T08:23:41.326Z,3.27
2017-08-06T08:26:12.164Z,3.70
2017-08-06T08:28:40.393Z,3.33
2017-08-06T08:31:07.905Z,2.60
2017-08-06T08:33:41.367Z,4.73
2017-08-06T08:36:10.847Z,3.30
2017-08-06T08:38:38.402Z,2.63
2017-08-06T08:41:11.913Z,2.87
2017-08-06T08:43:39.400Z,2.97
2017-08-06T08:46:06.954Z,3.00
2017-08-06T08:48:34.474Z,3.17
2017-08-06T08:51:02.310Z,3.70
2017-08-06T08:53:30.830Z,2.90
2017-08-06T08:55:58.337Z,2.37
2017-08-06T08:58:31.522Z,2.60
2017-08-06T09:00:59.026Z,2.70
2017-08-06T09:03:26.523Z,3.27
2017-08-06T09:05:54.024Z,2.37
2017-08-06T09:08:22.802Z,2.80
2017-08-06T09:10:50.505Z,2.57
2017-08-06T09:13:21.047Z,2.17
2017-08-06T09:15:48.554Z,2.40
2017-08-06T09:18:16.057Z,1.70
2017-08-06T09:20:43.919Z,2.20
2017-08-06T09:23:21.514Z,2.40
2017-08-06T09:25:50.426Z,2.73
2017-08-06T09:28:17.937Z,2.17
2017-08-06T09:30:45.433Z,2.20
2017-08-06T09:33:13.232Z,2.60
2017-08-06T09:35:50.967Z,2.50
2017-08-06T09:38:19.732Z,1.97
2017-08-06T09:40:47.232Z,2.40
2017-08-06T09:43:14.736Z,2.27
2017-08-06T09:45:50.010Z,2.10
2017-08-06T09:48:20.807Z,2.50
2017-08-06T09:50:49.376Z,2.13
2017-08-06T09:53:16.864Z,2.30
2017-08-06T09:55:44.363Z,2.10
2017-08-06T09:58:12.132Z,1.90
2017-08-06T10:00:39.623Z,2.20
2017-08-06T10:03:11.393Z,1.30
2017-08-06T10:05:42.012Z,1.93
2017-08-06T10:08:10.525Z,1.70
2017-08-06T10:10:41.255Z,1.30
2017-08-06T10:13:08.739Z,1.53
2017-08-06T10:15:42.161Z,1.00
2017-08-06T10:18:09.665Z,1.70
2017-08-06T10:20:40.423Z,1.03
2017-08-06T10:23:07.960Z,1.70
2017-08-06T10:25:35.469Z,1.43
2017-08-06T10:28:10.628Z,1.73
2017-08-06T10:30:41.151Z,1.27
2017-08-06T10:33:08.642Z,1.63
2017-08-06T10:35:36.149Z,1.20
2017-08-06T10:38:03.644Z,1.30
2017-08-06T10:40:40.644Z,1.20
2017-08-06T10:43:08.148Z,1.30
2017-08-06T10:45:41.804Z,1.30
2017-08-06T10:48:09.317Z,0.97
2017-08-06T10:50:36.819Z,1.03
2017-08-06T10:53:04.683Z,1.13
2017-08-06T10:55:40.722Z,1.10
2017-08-06T10:58:11.824Z,1.83
2017-08-06T11:00:39.328Z,1.23
2017-08-06T11:03:07.590Z,1.10
2017-08-06T11:05:41.228Z,1.17
2017-08-06T11:08:08.720Z,1.50
2017-08-06T11:10:36.202Z,1.20
2017-08-06T11:13:10.991Z,1.30
2017-08-06T11:15:38.484Z,0.90
2017-08-06T11:18:12.147Z,1.20
2017-08-06T11:20:40.857Z,1.30
2017-08-06T11:23:11.856Z,1.10
2017-08-06T11:25:39.357Z,0.80
2017-08-06T11:28:06.860Z,0.63
2017-08-06T11:30:40.340Z,1.20
2017-08-06T11:33:07.843Z,1.37
2017-08-06T11:35:35.671Z,0.70
2017-08-06T11:38:10.372Z,0.90
2017-08-06T11:40:38.172Z,1.00
2017-08-06T11:43:05.656Z,1.00
2017-08-06T11:45:40.465Z,1.23
2017-08-06T11:48:11.075Z,0.80
2017-08-06T11:50:40.932Z,1.30
2017-08-06T11:53:12.203Z,1.10
2017-08-06T11:55:41.168Z,1.67
2017-08-06T11:58:10.403Z,1.97
2017-08-06T12:00:37.928Z,1.00
2017-08-06T12:03:05.429Z,1.20
2017-08-06T12:05:33.020Z,1.20
2017-08-06T12:08:00.802Z,0.90
2017-08-06T12:10:31.360Z,0.77
2017-08-06T12:13:02.060Z,1.00
2017-08-06T12:15:31.286Z,1.17
2017-08-06T12:17:58.796Z,1.07
2017-08-06T12:20:26.300Z,0.83
2017-08-06T12:23:00.712Z,1.17
2017-08-06T12:25:28.223Z,0.80
2017-08-06T12:28:01.906Z,1.07
2017-08-06T12:30:29.696Z,1.10
2017-08-06T12:32:57.182Z,1.13
2017-08-06T12:35:24.666Z,0.83
2017-08-06T12:38:00.534Z,0.80
2017-08-06T12:40:28.031Z,1.23
2017-08-06T12:42:56.575Z,1.17
2017-08-06T12:45:30.282Z,0.90
2017-08-06T12:47:58.049Z,0.93
2017-08-06T12:50:25.530Z,0.87
2017-08-06T12:52:53.032Z,1.10
2017-08-06T12:55:30.786Z,0.70
2017-08-06T12:57:59.040Z,0.70
2017-08-06T13:00:26.848Z,0.77
2017-08-06T13:02:54.337Z,0.70
2017-08-06T13:05:30.480Z,0.60
2017-08-06T13:08:01.080Z,0.70
2017-08-06T13:10:31.935Z,1.03
2017-08-06T13:12:59.430Z,1.07
2017-08-06T13:15:30.723Z,0.90
2017-08-06T13:17:58.230Z,1.07
2017-08-06T13:20:25.733Z,1.00
2017-08-06T13:22:53.528Z,1.10
2017-08-06T13:25:21.031Z,0.90
2017-08-06T13:27:52.093Z,1.00
2017-08-06T13:30:19.649Z,0.60
2017-08-06T13:32:53.095Z,0.73
2017-08-06T13:35:31.076Z,0.70
2017-08-06T13:38:00.685Z,0.93
2017-08-06T13:40:28.948Z,1.13
2017-08-06T13:43:01.351Z,1.00
2017-08-06T13:45:30.563Z,0.70
2017-08-06T13:48:01.488Z,1.30
2017-08-06T13:50:28.985Z,0.80
2017-08-06T13:53:00.304Z,0.87
2017-08-06T13:55:27.824Z,0.73
2017-08-06T13:57:56.101Z,0.70
2017-08-06T14:00:30.806Z,0.87
2017-08-06T14:03:01.744Z,1.00
2017-08-06T14:05:30.382Z,1.10
2017-08-06T14:07:57.881Z,1.07
2017-08-06T14:10:25.713Z,0.87
2017-08-06T14:13:00.040Z,0.80
2017-08-06T14:15:27.969Z,1.10
2017-08-06T14:17:55.450Z,0.80
2017-08-06T14:20:31.048Z,1.00
2017-08-06T14:23:01.540Z,1.10
2017-08-06T14:25:29.022Z,1.40
2017-08-06T14:27:56.852Z,0.87
2017-08-06T14:30:24.356Z,1.10
2017-08-06T14:33:02.121Z,1.10
2017-08-06T14:35:30.856Z,1.40
2017-08-06T14:38:01.377Z,1.00
2017-08-06T14:40:29.183Z,1.00
2017-08-06T14:42:56.677Z,1.27
2017-08-06T14:45:24.192Z,1.00
2017-08-06T14:48:01.609Z,0.90
2017-08-06T14:50:29.102Z,0.80
2017-08-06T14:52:56.929Z,0.90
2017-08-06T14:55:24.413Z,0.80
2017-08-06T14:57:51.916Z,1.20
2017-08-06T15:00:19.439Z,0.70
2017-08-06T15:02:50.640Z,1.40
2017-08-06T15:05:18.445Z,0.90
2017-08-06T15:07:51.853Z,0.97
2017-08-06T15:10:19.663Z,0.87
2017-08-06T15:12:50.463Z,1.00
2017-08-06T15:15:17.999Z,0.97
2017-08-06T15:17:51.855Z,0.87
2017-08-06T15:20:19.347Z,0.60
2017-08-06T15:22:46.832Z,1.07
2017-08-06T15:25:14.346Z,0.90
2017-08-06T15:27:41.843Z,0.77
2017-08-06T15:30:09.779Z,0.63
2017-08-06T15:32:43.021Z,1.33
2017-08-06T15:35:20.722Z,0.87
2017-08-06T15:37:48.212Z,1.03
2017-08-06T15:40:15.724Z,1.03
2017-08-06T15:42:50.415Z,0.70
2017-08-06T15:45:17.907Z,1.00
2017-08-06T15:47:51.765Z,0.80
2017-08-06T15:50:20.292Z,0.90
2017-08-06T15:52:47.791Z,1.10
2017-08-06T15:55:16.398Z,1.27
2017-08-06T15:57:50.802Z,1.30
2017-08-06T16:00:18.573Z,1.00
2017-08-06T16:02:46.084Z,0.90
2017-08-06T16:05:13.576Z,1.13
2017-08-06T16:07:51.455Z,0.83
2017-08-06T16:10:18.996Z,1.23
2017-08-06T16:12:52.667Z,1.17
2017-08-06T16:15:20.174Z,0.80
2017-08-06T16:17:47.676Z,1.37
2017-08-06T16:20:21.384Z,0.77
2017-08-06T16:22:48.883Z,1.00
2017-08-06T16:25:22.614Z,1.40
2017-08-06T16:27:51.088Z,0.80
2017-08-06T16:30:18.619Z,0.90
2017-08-06T16:32:52.348Z,0.80
2017-08-06T16:35:20.861Z,1.33
2017-08-06T16:37:48.384Z,0.97
2017-08-06T16:40:16.204Z,1.23
2017-08-06T16:42:52.434Z,0.83
2017-08-06T16:45:20.570Z,1.33
2017-08-06T16:47:51.808Z,1.20
2017-08-06T16:50:19.313Z,1.30
2017-08-06T16:52:48.365Z,1.30
2017-08-06T16:55:15.876Z,0.73
2017-08-06T16:57:47.121Z,1.13
2017-08-06T17:00:20.869Z,1.10
2017-08-06T17:02:48.387Z,1.00
2017-08-06T17:05:16.652Z,1.20
2017-08-06T17:07:44.166Z,1.67
2017-08-06T17:10:11.668Z,1.10
2017-08-06T17:12:42.588Z,1.23
2017-08-06T17:15:11.829Z,1.50
2017-08-06T17:17:39.321Z,0.93
2017-08-06T17:20:07.856Z,0.90
2017-08-06T17:22:41.937Z,0.60
2017-08-06T17:25:15.946Z,1.10
2017-08-06T17:27:55.651Z,0.87
2017-08-06T17:30:37.055Z,0.90
2017-08-06T17:33:10.826Z,1.20
2017-08-06T17:35:38.615Z,0.80
2017-08-06T17:38:12.016Z,1.40
2017-08-06T17:40:39.821Z,0.80
2017-08-06T17:43:07.315Z,1.10
2017-08-06T17:45:34.810Z,1.00
2017-08-06T17:48:02.339Z,0.90
2017-08-06T17:50:30.845Z,1.17
2017-08-06T17:53:00.809Z,0.93
2017-08-06T17:55:32.087Z,0.90
2017-08-06T17:58:01.033Z,0.80
2017-08-06T18:00:30.364Z,0.87
2017-08-06T18:02:57.910Z,1.20
2017-08-06T18:05:25.449Z,1.47
2017-08-06T18:07:52.936Z,1.30
2017-08-06T18:10:30.728Z,1.80
2017-08-06T18:12:58.240Z,1.37
2017-08-06T18:15:26.513Z,1.13
2017-08-06T18:18:00.255Z,1.40
2017-08-06T18:20:31.052Z,1.00
2017-08-06T18:23:00.575Z,1.20
2017-08-06T18:25:32.200Z,1.67
2017-08-06T18:27:59.965Z,1.53
2017-08-06T18:30:31.324Z,1.47
2017-08-06T18:32:59.949Z,1.67
2017-08-06T18:35:27.459Z,1.03
2017-08-06T18:38:01.292Z,1.47
2017-08-06T18:40:31.704Z,0.93
2017-08-06T18:43:02.577Z,1.50
2017-08-06T18:45:30.153Z,1.20
2017-08-06T18:48:01.396Z,1.40
2017-08-06T18:50:35.263Z,1.30
2017-08-06T18:53:02.858Z,1.40
2017-08-06T18:55:30.636Z,1.80
2017-08-06T18:57:58.136Z,1.00
2017-08-06T19:00:25.644Z,1.43
2017-08-06T19:02:53.189Z,1.10
2017-08-06T19:05:30.727Z,1.53
2017-08-06T19:07:58.479Z,1.20
2017-08-06T19:10:26.810Z,1.33
2017-08-06T19:13:01.449Z,1.57
2017-08-06T19:15:28.948Z,1.30
2017-08-06T19:17:56.717Z,1.40
2017-08-06T19:20:24.225Z,1.30
2017-08-06T19:23:01.927Z,1.30
2017-08-06T19:25:30.747Z,1.23
2017-08-06T19:28:01.324Z,1.10
2017-08-06T19:30:29.210Z,1.53
2017-08-06T19:33:00.400Z,1.37
2017-08-06T19:35:27.888Z,1.00
2017-08-06T19:38:01.129Z,1.23
2017-08-06T19:40:28.632Z,0.87
2017-08-06T19:42:56.415Z,1.40
2017-08-06T19:45:23.913Z,1.30
2017-08-06T19:48:01.719Z,1.63
2017-08-06T19:50:29.204Z,1.70
2017-08-06T19:53:02.716Z,1.57
2017-08-06T19:55:30.985Z,1.10
2017-08-06T19:58:02.028Z,1.73
2017-08-06T20:00:29.815Z,1.20
2017-08-06T20:02:57.306Z,1.33
2017-08-06T20:05:30.848Z,1.60
2017-08-06T20:08:01.548Z,1.53
2017-08-06T20:10:32.343Z,1.87
2017-08-06T20:13:00.548Z,1.47
2017-08-06T20:15:31.967Z,1.53
2017-08-06T20:18:00.610Z,1.20
2017-08-06T20:20:31.175Z,1.10
2017-08-06T20:22:58.681Z,1.53
2017-08-06T20:25:26.189Z,1.20
2017-08-06T20:28:00.812Z,1.03
2017-08-06T20:30:28.325Z,1.20
2017-08-06T20:32:55.816Z,1.80
2017-08-06T20:35:23.582Z,1.40
2017-08-06T20:38:00.898Z,1.07
2017-08-06T20:40:31.944Z,1.40
2017-08-06T20:42:59.442Z,1.47
2017-08-06T20:45:32.928Z,1.10
2017-08-06T20:48:00.434Z,1.47
2017-08-06T20:50:31.224Z,1.40
2017-08-06T20:52:58.732Z,1.53
2017-08-06T20:55:32.037Z,1.30
2017-08-06T20:57:59.819Z,1.60
2017-08-06T21:00:27.319Z,1.37
2017-08-06T21:03:00.939Z,1.30
2017-08-06T21:05:31.352Z,1.37
2017-08-06T21:07:58.852Z,1.30
2017-08-06T21:10:32.246Z,1.53
2017-08-06T21:13:00.505Z,1.47
2017-08-06T21:15:28.304Z,1.63
2017-08-06T21:17:56.562Z,2.07
2017-08-06T21:20:24.823Z,1.30
2017-08-06T21:22:53.444Z,1.00
2017-08-06T21:25:30.848Z,1.63
2017-08-06T21:28:01.996Z,1.30
2017-08-06T21:30:29.489Z,1.40
2017-08-06T21:33:00.587Z,1.60
2017-08-06T21:35:28.358Z,1.57
2017-08-06T21:37:55.851Z,2.10
2017-08-06T21:40:23.334Z,1.43
2017-08-06T21:42:51.104Z,1.07
2017-08-06T21:45:19.360Z,1.53
2017-08-06T21:47:46.853Z,1.33
2017-08-06T21:50:20.342Z,2.03
2017-08-06T21:52:47.834Z,1.43
2017-08-06T21:55:21.808Z,1.50
2017-08-06T21:57:50.323Z,1.20
2017-08-06T22:00:20.778Z,1.47
2017-08-06T22:02:48.593Z,1.50
2017-08-06T22:05:22.591Z,1.80
2017-08-06T22:07:50.497Z,1.87
2017-08-06T22:10:20.945Z,1.87
2017-08-06T22:12:48.429Z,2.27
2017-08-06T22:15:16.718Z,1.57
2017-08-06T22:17:50.626Z,1.83
2017-08-06T22:20:21.799Z,1.80
2017-08-06T22:22:51.135Z,1.80
2017-08-06T22:25:18.624Z,2.80
2017-08-06T22:27:47.233Z,2.37
2017-08-06T22:30:14.750Z,2.43
2017-08-06T22:32:50.324Z,2.13
2017-08-06T22:35:18.588Z,2.13
2017-08-06T22:37:46.076Z,2.80
2017-08-06T22:40:20.835Z,1.53
2017-08-06T22:42:48.324Z,1.87
2017-08-06T22:45:16.111Z,1.90
2017-08-06T22:47:50.526Z,2.07
2017-08-06T22:50:21.795Z,1.83
2017-08-06T22:52:50.908Z,1.40
2017-08-06T22:55:18.406Z,1.80
2017-08-06T22:57:45.912Z,2.10
2017-08-06T23:00:13.418Z,1.50
2017-08-06T23:02:50.991Z,2.07
2017-08-06T23:05:18.481Z,1.43
2017-08-06T23:07:46.274Z,1.77
2017-08-06T23:10:20.584Z,1.60
2017-08-06T23:12:49.220Z,1.50
2017-08-06T23:15:16.726Z,1.47
2017-08-06T23:17:51.727Z,2.33
2017-08-06T23:20:19.223Z,2.37
2017-08-06T23:22:47.480Z,1.97
2017-08-06T23:25:20.970Z,1.70
2017-08-06T23:27:51.697Z,1.80
2017-08-06T23:30:22.203Z,1.70
2017-08-06T23:32:49.694Z,2.07
2017-08-06T23:35:17.483Z,1.70
2017-08-06T23:37:51.421Z,2.00
2017-08-06T23:40:22.388Z,1.93
2017-08-06T23:42:49.890Z,3.20
2017-08-06T23:45:21.105Z,2.20
2017-08-06T23:47:48.916Z,2.10
2017-08-06T23:50:16.406Z,2.03
2017-08-06T23:52:43.901Z,1.90
2017-08-06T23:55:11.716Z,1.17
2017-08-06T23:57:39.204Z,1.57
